Main page


Airports :

Kuwait City, Kuwait

Kuwait International Airport

latitude: 29-13N, longitude: 047-59E, elevation: 55 m

Current weather observation

The report was made 59 minutes ago, at 09:00 UTC
Wind 15 kt from the North/Northwest
Temperature 24°C
Humidity 16%
Pressure 1014 hPa
Visibility 10 km or more
no clouds below 1500 m and no cumulonimbus

METAR: OKBK 180900Z 34015KT CAVOK 24/M03 Q1014 NOSIG

Time: 12:59 (09:59 UTC)


The report was made 23 hours and 14 minutes ago, at 10:45 UTC
Forecast valid from 17 at 12 UTC to 18 at 18 UTC
Wind 12 kt from the North with gusts up to 22 kt
Visibility: 6000 m
from 17 at 12 UTC to 17 at 16 UTC
Visibility: 3000 m
Blowing dust

TAF: OKBK 171045Z 1712/1818 35012G22KT 6000 NSC TEMPO 1712/1716 3000 BLDU

Weather observations and forecasts of more than 4000 airports (METAR and TAF reports).

The available stations are represented by yellow and red dots on the map.

Hover mouse over dot to see the name of the station.

Then click to see weather observations and forecasts.

To change the map : click on the green buttons with a black cross to zoom in, on the green button with a dash to zoom out, or on the green arrows for adjacent maps.